Time;durP1;ratioP1;P1;durP2;ratioP2;P2;SDS_P1;SDS_P2;PMS_P1;PMS_P2;Temp;Humidity;BMP_temperature;BMP_pressure;BME280_temperature;BME280_humidity;BME280_pressure;Samples;Min_cycle;Max_cycle;Signal;HPM_P1;HPM_P2
2022/10/19 00:00:48;;;;;;;38.58;17.17;;;;;;;;;;7385088;19;20021;-75
2022/10/19 00:03:14;;;;;;;35.67;17.13;;;;;;;;;;7383614;19;20002;-75
2022/10/19 00:05:39;;;;;;;39.20;17.08;;;;;;;;;;7386232;19;20035;-75
2022/10/19 00:08:05;;;;;;;38.78;16.70;;;;;;;;;;7386440;19;20006;-75
2022/10/19 00:10:31;;;;;;;41.08;16.38;;;;;;;;;;7385155;19;20531;-75
2022/10/19 00:12:57;;;;;;;35.30;16.25;;;;;;;;;;7386705;19;20026;-75
2022/10/19 00:15:22;;;;;;;39.92;16.85;;;;;;;;;;7389461;19;20019;-75
2022/10/19 00:17:47;;;;;;;40.78;16.95;;;;;;;;;;7389565;19;20468;-75
2022/10/19 00:20:13;;;;;;;37.10;16.58;;;;;;;;;;7389074;19;20385;-75
2022/10/19 00:22:38;;;;;;;36.17;17.27;;;;;;;;;;7385338;19;20019;-75
2022/10/19 00:25:04;;;;;;;36.63;15.93;;;;;;;;;;7387155;19;19998;-74
2022/10/19 00:27:30;;;;;;;38.33;16.63;;;;;;;;;;7387063;19;20007;-74
2022/10/19 00:29:55;;;;;;;33.08;15.82;;;;;;;;;;7388875;19;20001;-74
2022/10/19 00:32:21;;;;;;;40.00;15.68;;;;;;;;;;7387440;19;20002;-76
2022/10/19 00:34:46;;;;;;;33.03;15.27;;;;;;;;;;7389225;19;20009;-75
2022/10/19 00:37:11;;;;;;;35.20;15.60;;;;;;;;;;7386890;19;20026;-75
2022/10/19 00:39:37;;;;;;;36.38;15.85;;;;;;;;;;7388634;19;20016;-75
2022/10/19 00:42:03;;;;;;;36.42;15.68;;;;;;;;;;7385445;19;20002;-75
2022/10/19 00:44:28;;;;;;;35.33;15.38;;;;;;;;;;7390216;19;19999;-75
2022/10/19 00:46:58;;;;;;;31.83;14.97;;;;;;;;;;7390706;19;20071;-75
2022/10/19 00:49:27;;;;;;;30.15;15.40;;;;;;;;;;7388643;19;20262;-75
2022/10/19 00:51:56;;;;;;;30.75;14.63;;;;;;;;;;7388051;19;20452;-75
2022/10/19 00:54:22;;;;;;;33.58;14.20;;;;;;;;;;7386266;19;19995;-75
2022/10/19 00:56:50;;;;;;;30.48;14.25;;;;;;;;;;7388680;19;20628;-75
2022/10/19 00:59:18;;;;;;;31.58;14.75;;;;;;;;;;7386120;19;20020;-75
2022/10/19 01:01:45;;;;;;;34.65;15.43;;;;;;;;;;7385659;19;20003;-75
2022/10/19 01:04:11;;;;;;;30.92;13.73;;;;;;;;;;7388107;19;19998;-74
2022/10/19 01:06:38;;;;;;;30.48;13.52;;;;;;;;;;7388117;19;20041;-75
2022/10/19 01:09:04;;;;;;;31.33;14.23;;;;;;;;;;7388125;19;20135;-75
2022/10/19 01:11:53;;;;;;;29.48;13.38;;;;;;;;;;7385305;19;20015;-75
2022/10/19 01:15:06;;;;;;;27.70;13.45;;;;;;;;;;7388286;19;20066;-75
2022/10/19 01:17:46;;;;;;;32.25;13.75;;;;;;;;;;7388333;19;20003;-74
2022/10/19 01:20:36;;;;;;;29.17;13.27;;;;;;;;;;7387555;19;20014;-74
2022/10/19 01:23:38;;;;;;;32.25;13.80;;;;;;;;;;7383518;19;20432;-74
2022/10/19 01:26:15;;;;;;;;;;;;;;;;;;7395957;19;19999;-75
2022/10/19 01:28:43;;;;;;;32.53;13.32;;;;;;;;;;7395912;19;19914;-75
2022/10/19 01:31:21;;;;;;;29.77;13.70;;;;;;;;;;7390788;19;20006;-74
2022/10/19 01:34:05;;;;;;;25.92;12.68;;;;;;;;;;7395665;19;20007;-75
2022/10/19 01:36:53;;;;;;;30.60;13.25;;;;;;;;;;7395467;19;20006;-75
2022/10/19 01:39:37;;;;;;;26.17;13.27;;;;;;;;;;7395652;19;20337;-76
2022/10/19 01:42:16;;;;;;;26.20;12.95;;;;;;;;;;7391436;19;20002;-75
2022/10/19 01:45:08;;;;;;;25.48;12.27;;;;;;;;;;7398082;19;20002;-74
2022/10/19 01:47:40;;;;;;;30.05;12.48;;;;;;;;;;7392307;19;20005;-75
2022/10/19 01:50:10;;;;;;;27.30;14.02;;;;;;;;;;7394783;19;20024;-74
2022/10/19 01:52:38;;;;;;;33.90;14.23;;;;;;;;;;7392629;19;20002;-75
2022/10/19 01:55:04;;;;;;;30.88;13.98;;;;;;;;;;7390481;19;21103;-75
2022/10/19 01:57:33;;;;;;;26.98;13.57;;;;;;;;;;7390214;19;20087;-74
2022/10/19 02:00:06;;;;;;;30.38;14.48;;;;;;;;;;7389707;19;20003;-75
2022/10/19 02:02:33;;;;;;;28.25;13.48;;;;;;;;;;7387530;19;19998;-74
2022/10/19 02:05:00;;;;;;;28.80;13.88;;;;;;;;;;7390161;19;20472;-75
2022/10/19 02:07:26;;;;;;;30.73;12.27;;;;;;;;;;7390341;19;20002;-74
2022/10/19 02:09:52;;;;;;;32.13;14.00;;;;;;;;;;7389899;19;20007;-76
2022/10/19 02:12:19;;;;;;;26.35;12.10;;;;;;;;;;7396775;19;20411;-74
2022/10/19 02:14:50;;;;;;;25.50;12.30;;;;;;;;;;7397299;19;20009;-74
2022/10/19 02:17:24;;;;;;;23.80;11.90;;;;;;;;;;7398502;19;20010;-75
2022/10/19 02:19:49;;;;;;;22.48;11.70;;;;;;;;;;7393561;19;20003;-75
2022/10/19 02:22:15;;;;;;;35.20;13.00;;;;;;;;;;7389929;19;20080;-76
2022/10/19 02:24:40;;;;;;;23.23;10.93;;;;;;;;;;7393428;19;20193;-73
2022/10/19 02:27:07;;;;;;;27.25;12.07;;;;;;;;;;7393776;19;20436;-76
2022/10/19 02:29:34;;;;;;;26.20;11.80;;;;;;;;;;7391252;19;20342;-75
2022/10/19 02:32:00;;;;;;;24.02;11.32;;;;;;;;;;7389356;19;20119;-75
2022/10/19 02:34:26;;;;;;;24.67;11.13;;;;;;;;;;7393197;19;20102;-76
2022/10/19 02:36:51;;;;;;;21.30;10.60;;;;;;;;;;7392806;19;20029;-74
2022/10/19 02:39:16;;;;;;;29.45;12.50;;;;;;;;;;7392420;19;20760;-74
2022/10/19 02:41:51;;;;;;;22.70;12.07;;;;;;;;;;7388913;19;19995;-74
2022/10/19 02:44:28;;;;;;;29.98;11.88;;;;;;;;;;7396332;19;20041;-74
2022/10/19 02:47:01;;;;;;;25.73;11.55;;;;;;;;;;7392901;19;20011;-75
2022/10/19 02:49:28;;;;;;;30.92;12.07;;;;;;;;;;7392779;19;20023;-75
2022/10/19 02:51:55;;;;;;;29.05;12.63;;;;;;;;;;7392979;19;20013;-75
2022/10/19 02:54:21;;;;;;;25.38;11.38;;;;;;;;;;7394226;19;20483;-75
2022/10/19 02:56:47;;;;;;;27.65;11.77;;;;;;;;;;7392351;19;19995;-75
2022/10/19 02:59:12;;;;;;;29.17;11.60;;;;;;;;;;7392412;19;20036;-76
2022/10/19 03:01:37;;;;;;;26.48;12.38;;;;;;;;;;7388472;19;20007;-74
2022/10/19 03:04:03;;;;;;;25.08;12.15;;;;;;;;;;7391847;19;20026;-74
2022/10/19 03:06:28;;;;;;;20.67;10.98;;;;;;;;;;7392552;19;20246;-75
2022/10/19 03:08:53;;;;;;;28.25;11.38;;;;;;;;;;7392046;19;19998;-75
2022/10/19 03:11:19;;;;;;;24.45;11.82;;;;;;;;;;7389176;19;20545;-75
2022/10/19 03:13:44;;;;;;;30.50;12.13;;;;;;;;;;7391699;19;20007;-75
2022/10/19 03:16:11;;;;;;;25.40;11.82;;;;;;;;;;7391549;19;20071;-75
2022/10/19 03:18:37;;;;;;;25.52;11.23;;;;;;;;;;7392418;19;20055;-75
2022/10/19 03:21:11;;;;;;;28.50;11.43;;;;;;;;;;7394452;19;20007;-76
2022/10/19 03:23:37;;;;;;;31.38;13.00;;;;;;;;;;7397502;19;20006;-75
2022/10/19 03:26:03;;;;;;;29.10;12.32;;;;;;;;;;7392892;19;20054;-75
2022/10/19 03:28:29;;;;;;;25.00;11.65;;;;;;;;;;7390669;19;20003;-75
2022/10/19 03:30:54;;;;;;;25.58;11.80;;;;;;;;;;7390540;19;20013;-75
2022/10/19 03:33:20;;;;;;;26.95;11.88;;;;;;;;;;7390585;19;20020;-75
2022/10/19 03:35:45;;;;;;;24.48;11.65;;;;;;;;;;7392305;19;20006;-74
2022/10/19 03:38:11;;;;;;;25.00;11.55;;;;;;;;;;7391705;19;20349;-76
2022/10/19 03:40:36;;;;;;;28.27;12.13;;;;;;;;;;7390344;19;20028;-76
2022/10/19 03:43:02;;;;;;;26.55;12.52;;;;;;;;;;7389379;19;20408;-76
2022/10/19 03:45:27;;;;;;;22.40;11.15;;;;;;;;;;7391053;19;20449;-75
2022/10/19 03:47:52;;;;;;;24.15;11.70;;;;;;;;;;7389335;19;20003;-75
2022/10/19 03:50:19;;;;;;;25.80;12.32;;;;;;;;;;7390313;19;20002;-75
2022/10/19 03:52:44;;;;;;;20.80;11.85;;;;;;;;;;7389523;19;20022;-75
2022/10/19 03:55:10;;;;;;;23.65;11.93;;;;;;;;;;7390979;19;20070;-75
2022/10/19 03:57:36;;;;;;;23.30;11.68;;;;;;;;;;7390514;19;20079;-75
2022/10/19 04:00:05;;;;;;;23.80;11.95;;;;;;;;;;7390114;19;20014;-75
2022/10/19 04:02:30;;;;;;;22.27;12.32;;;;;;;;;;7392392;19;20460;-75
2022/10/19 04:04:56;;;;;;;23.63;12.05;;;;;;;;;;7389093;19;20003;-75
2022/10/19 04:07:21;;;;;;;28.83;13.27;;;;;;;;;;7394670;19;20372;-74
2022/10/19 04:09:46;;;;;;;22.52;11.85;;;;;;;;;;7390532;19;19999;-75
2022/10/19 04:12:12;;;;;;;22.88;11.68;;;;;;;;;;7392842;19;20401;-75
2022/10/19 04:14:37;;;;;;;26.02;12.27;;;;;;;;;;7389843;19;20032;-75
2022/10/19 04:17:03;;;;;;;25.83;11.95;;;;;;;;;;7390349;19;20028;-76
2022/10/19 04:19:29;;;;;;;22.33;11.50;;;;;;;;;;7390240;19;19998;-75
2022/10/19 04:21:54;;;;;;;27.70;12.55;;;;;;;;;;7388545;19;19998;-74
2022/10/19 04:24:20;;;;;;;24.67;11.00;;;;;;;;;;7324249;19;20482;-76
2022/10/19 04:26:50;;;;;;;25.63;11.30;;;;;;;;;;7392395;19;20006;-74
2022/10/19 04:29:17;;;;;;;24.58;11.23;;;;;;;;;;7393583;19;20007;-75
2022/10/19 04:31:44;;;;;;;23.92;10.63;;;;;;;;;;7385769;19;20002;-74
2022/10/19 04:34:09;;;;;;;24.85;10.52;;;;;;;;;;7388953;19;19998;-75
2022/10/19 04:36:35;;;;;;;25.20;10.25;;;;;;;;;;7386917;19;19991;-75
2022/10/19 04:39:00;;;;;;;18.98;9.05;;;;;;;;;;7390532;19;19998;-75
2022/10/19 04:41:26;;;;;;;21.73;9.25;;;;;;;;;;7386651;19;20002;-75
2022/10/19 04:43:59;;;;;;;17.83;8.30;;;;;;;;;;7386548;19;20007;-75
2022/10/19 04:46:26;;;;;;;20.52;9.13;;;;;;;;;;7387352;19;20002;-75
2022/10/19 04:48:52;;;;;;;16.05;8.68;;;;;;;;;;7389091;19;20015;-78
2022/10/19 04:51:18;;;;;;;19.08;8.55;;;;;;;;;;7386268;19;20462;-78
2022/10/19 04:53:45;;;;;;;17.90;8.48;;;;;;;;;;7389432;19;20017;-78
2022/10/19 04:56:22;;;;;;;19.80;8.23;;;;;;;;;;7386883;19;20362;-79
2022/10/19 04:58:48;;;;;;;21.48;8.90;;;;;;;;;;7385608;19;20022;-77
2022/10/19 05:01:17;;;;;;;16.27;7.72;;;;;;;;;;7384296;19;20492;-79
2022/10/19 05:03:42;;;;;;;18.20;8.38;;;;;;;;;;7387641;19;20031;-83
2022/10/19 05:06:09;;;;;;;15.90;7.78;;;;;;;;;;7392066;19;20003;-76
2022/10/19 05:08:35;;;;;;;23.88;8.10;;;;;;;;;;7382860;19;20037;-76
2022/10/19 05:11:10;;;;;;;15.55;7.78;;;;;;;;;;7382258;19;20005;-76
2022/10/19 05:13:36;;;;;;;15.55;7.53;;;;;;;;;;7385708;19;19998;-76
2022/10/19 05:16:04;;;;;;;17.35;7.85;;;;;;;;;;7391179;19;20266;-75
2022/10/19 05:18:29;;;;;;;20.10;7.18;;;;;;;;;;7390855;19;19994;-76
2022/10/19 05:21:06;;;;;;;21.08;7.68;;;;;;;;;;7385748;19;19999;-77
2022/10/19 05:23:32;;;;;;;25.30;7.20;;;;;;;;;;7388989;19;19998;-77
2022/10/19 05:25:59;;;;;;;16.33;7.93;;;;;;;;;;7391175;19;20018;-77
2022/10/19 05:28:24;;;;;;;17.30;7.90;;;;;;;;;;7391422;19;19998;-78
2022/10/19 05:30:50;;;;;;;21.95;8.20;;;;;;;;;;7389516;19;20017;-77
2022/10/19 05:33:15;;;;;;;21.25;9.15;;;;;;;;;;7387018;19;20011;-80
2022/10/19 05:35:40;;;;;;;20.65;8.07;;;;;;;;;;7388478;19;20002;-77
2022/10/19 05:38:05;;;;;;;17.58;8.40;;;;;;;;;;7390858;19;20003;-78
2022/10/19 05:40:31;;;;;;;22.23;8.60;;;;;;;;;;7387516;19;19998;-78
2022/10/19 05:42:56;;;;;;;19.00;9.15;;;;;;;;;;7380208;19;19995;-78
2022/10/19 05:45:21;;;;;;;26.05;9.07;;;;;;;;;;7387489;19;20325;-79
2022/10/19 05:47:47;;;;;;;24.38;9.40;;;;;;;;;;7388004;19;20016;-79
2022/10/19 05:50:12;;;;;;;18.65;8.95;;;;;;;;;;7390625;19;19999;-79
2022/10/19 05:52:37;;;;;;;22.45;9.20;;;;;;;;;;7385641;19;20523;-80
2022/10/19 05:55:03;;;;;;;20.77;9.60;;;;;;;;;;7388939;19;19995;-79
2022/10/19 05:57:30;;;;;;;21.17;9.30;;;;;;;;;;7390375;19;20009;-79
2022/10/19 05:59:57;;;;;;;21.30;9.35;;;;;;;;;;7389912;19;19998;-79
2022/10/19 06:02:22;;;;;;;21.05;9.43;;;;;;;;;;7387740;19;19998;-81
2022/10/19 06:04:48;;;;;;;21.02;9.43;;;;;;;;;;7390029;19;20006;-80
2022/10/19 06:07:13;;;;;;;23.65;9.43;;;;;;;;;;7391153;19;20312;-79
2022/10/19 06:09:38;;;;;;;20.70;10.20;;;;;;;;;;7387881;19;19999;-79
2022/10/19 06:12:04;;;;;;;22.00;9.80;;;;;;;;;;7393487;19;20003;-79
2022/10/19 06:14:29;;;;;;;20.20;10.40;;;;;;;;;;7398156;19;20030;-80
2022/10/19 06:16:55;;;;;;;21.95;10.10;;;;;;;;;;7395901;19;19998;-80
2022/10/19 06:19:20;;;;;;;18.08;10.15;;;;;;;;;;7395675;19;20006;-80
2022/10/19 06:21:45;;;;;;;20.85;10.10;;;;;;;;;;7392128;19;20003;-80
2022/10/19 06:24:11;;;;;;;20.35;9.32;;;;;;;;;;7396989;19;20006;-78
2022/10/19 06:26:37;;;;;;;26.85;11.52;;;;;;;;;;7392287;19;20495;-77
2022/10/19 06:29:03;;;;;;;22.27;10.20;;;;;;;;;;7393934;19;20031;-77
2022/10/19 06:31:31;;;;;;;25.98;10.05;;;;;;;;;;7390077;19;20019;-78
2022/10/19 06:33:57;;;;;;;22.02;9.90;;;;;;;;;;7396632;19;20098;-78
2022/10/19 06:36:25;;;;;;;25.30;13.30;;;;;;;;;;7405247;19;20479;-78
2022/10/19 06:38:52;;;;;;;23.98;10.80;;;;;;;;;;7400520;19;20069;-78
2022/10/19 06:41:17;;;;;;;26.83;10.93;;;;;;;;;;7402308;19;20009;-78
2022/10/19 06:43:43;;;;;;;19.85;10.32;;;;;;;;;;7402299;19;20003;-77
2022/10/19 06:46:16;;;;;;;23.63;10.68;;;;;;;;;;7396106;19;19998;-77
2022/10/19 06:48:44;;;;;;;20.13;9.88;;;;;;;;;;7394584;19;20017;-78
2022/10/19 06:51:09;;;;;;;21.20;11.18;;;;;;;;;;7392435;19;20694;-78
2022/10/19 06:53:35;;;;;;;21.83;9.73;;;;;;;;;;7394423;19;19995;-77
2022/10/19 06:56:03;;;;;;;25.45;13.55;;;;;;;;;;7395899;19;19998;-78
2022/10/19 06:58:29;;;;;;;24.48;10.43;;;;;;;;;;7396651;19;20005;-79
2022/10/19 07:00:59;;;;;;;32.28;11.63;;;;;;;;;;7401608;19;20006;-79
2022/10/19 07:03:26;;;;;;;20.50;9.68;;;;;;;;;;7405814;19;20013;-78
2022/10/19 07:05:56;;;;;;;25.60;9.98;;;;;;;;;;7401448;19;20036;-77
2022/10/19 07:08:22;;;;;;;21.60;8.93;;;;;;;;;;7392661;19;20086;-76
2022/10/19 07:10:54;;;;;;;18.90;8.85;;;;;;;;;;7391107;19;20010;-76
2022/10/19 07:13:20;;;;;;;19.52;8.70;;;;;;;;;;7393219;19;20062;-76
2022/10/19 07:15:46;;;;;;;19.02;8.82;;;;;;;;;;7393769;19;20334;-77
2022/10/19 07:18:12;;;;;;;15.63;8.90;;;;;;;;;;7393550;19;20002;-77
2022/10/19 07:20:37;;;;;;;16.35;8.35;;;;;;;;;;7392164;19;20006;-76
2022/10/19 07:23:02;;;;;;;20.48;8.65;;;;;;;;;;7387056;19;20086;-73
2022/10/19 07:25:29;;;;;;;17.55;8.63;;;;;;;;;;7393644;19;20001;-74
2022/10/19 07:27:54;;;;;;;19.17;8.82;;;;;;;;;;7391474;19;20027;-74
2022/10/19 07:30:23;;;;;;;14.15;8.07;;;;;;;;;;7394401;19;19999;-74
2022/10/19 07:32:48;;;;;;;20.08;7.95;;;;;;;;;;7389047;19;19998;-73
2022/10/19 07:35:14;;;;;;;14.80;7.45;;;;;;;;;;7390305;19;20465;-66
2022/10/19 07:37:39;;;;;;;16.75;7.75;;;;;;;;;;7393039;19;20058;-82
2022/10/19 07:40:05;;;;;;;15.55;7.72;;;;;;;;;;7393896;19;20003;-83
2022/10/19 07:42:31;;;;;;;17.45;7.22;;;;;;;;;;7388790;19;19990;-83
2022/10/19 07:44:59;;;;;;;17.65;6.93;;;;;;;;;;7392437;19;20001;-82
2022/10/19 07:47:27;;;;;;;12.80;6.38;;;;;;;;;;7390847;19;20097;-81
2022/10/19 07:49:52;;;;;;;17.60;6.60;;;;;;;;;;7391251;19;20456;-82
2022/10/19 07:52:18;;;;;;;28.52;15.68;;;;;;;;;;7395331;19;20467;-82
2022/10/19 07:54:43;;;;;;;15.80;7.72;;;;;;;;;;7391637;19;20002;-83
2022/10/19 07:57:11;;;;;;;12.93;5.82;;;;;;;;;;7392947;19;20006;-81
2022/10/19 07:59:36;;;;;;;11.43;5.63;;;;;;;;;;7393421;19;20006;-82
2022/10/19 08:02:03;;;;;;;10.40;5.38;;;;;;;;;;7391062;19;20460;-83
2022/10/19 08:04:29;;;;;;;12.13;5.00;;;;;;;;;;7394992;19;20054;-84
2022/10/19 08:06:54;;;;;;;9.55;5.00;;;;;;;;;;7392231;19;20019;-83
2022/10/19 08:09:19;;;;;;;9.88;4.82;;;;;;;;;;7393359;19;19995;-82
2022/10/19 08:11:45;;;;;;;9.48;5.10;;;;;;;;;;7388774;19;20022;-84
2022/10/19 08:14:10;;;;;;;14.30;6.43;;;;;;;;;;7392335;19;19999;-83
2022/10/19 08:16:43;;;;;;;12.63;6.35;;;;;;;;;;7389560;19;20002;-81
2022/10/19 08:19:11;;;;;;;11.35;5.13;;;;;;;;;;7392934;19;20078;-83
2022/10/19 08:21:39;;;;;;;11.25;4.88;;;;;;;;;;7390459;19;20046;-83
2022/10/19 08:24:05;;;;;;;11.95;4.63;;;;;;;;;;7393851;19;20027;-84
2022/10/19 08:26:33;;;;;;;9.70;4.07;;;;;;;;;;7390832;19;20015;-84
2022/10/19 08:29:00;;;;;;;12.35;4.70;;;;;;;;;;7391887;19;20476;-84
2022/10/19 08:31:25;;;;;;;14.05;4.97;;;;;;;;;;7388950;19;20002;-83
2022/10/19 08:33:50;;;;;;;13.60;4.80;;;;;;;;;;7390256;19;20469;-82
2022/10/19 08:36:16;;;;;;;8.73;3.53;;;;;;;;;;7391065;19;20001;-82
2022/10/19 08:38:43;;;;;;;15.20;4.53;;;;;;;;;;7390746;19;20032;-83
2022/10/19 08:41:29;;;;;;;9.85;4.00;;;;;;;;;;7389661;19;20006;-83
2022/10/19 08:44:25;;;;;;;11.20;5.10;;;;;;;;;;7390981;19;20388;-84
2022/10/19 08:47:18;;;;;;;10.25;3.80;;;;;;;;;;7383455;19;20560;-82
2022/10/19 08:49:44;;;;;;;11.77;4.30;;;;;;;;;;7383595;19;20419;-84
2022/10/19 08:52:17;;;;;;;10.88;4.00;;;;;;;;;;7389402;19;20015;-84
2022/10/19 08:54:50;;;;;;;9.88;3.55;;;;;;;;;;7391818;19;20025;-85
2022/10/19 08:57:25;;;;;;;13.93;7.18;;;;;;;;;;7390326;19;20002;-85
2022/10/19 08:59:57;;;;;;;12.52;4.38;;;;;;;;;;7391028;19;20002;-84
2022/10/19 09:02:44;;;;;;;8.68;3.72;;;;;;;;;;7389351;19;20006;-86
2022/10/19 09:05:45;;;;;;;11.40;4.05;;;;;;;;;;7390616;19;19999;-86
2022/10/19 09:08:11;;;;;;;11.20;3.95;;;;;;;;;;7391307;19;20002;-86
2022/10/19 09:10:43;;;;;;;14.32;3.92;;;;;;;;;;7392476;19;20517;-84
2022/10/19 09:13:15;;;;;;;9.32;3.70;;;;;;;;;;7389137;19;20050;-85
2022/10/19 09:15:46;;;;;;;12.13;3.95;;;;;;;;;;7392443;19;20006;-86
2022/10/19 09:18:19;;;;;;;13.55;4.95;;;;;;;;;;7393331;19;20076;-86
2022/10/19 09:20:48;;;;;;;13.13;3.90;;;;;;;;;;7391038;19;19998;-84
2022/10/19 09:23:33;;;;;;;8.05;3.90;;;;;;;;;;7387474;19;19998;-84
2022/10/19 09:25:59;;;;;;;8.70;3.80;;;;;;;;;;7391372;19;19998;-84
2022/10/19 09:28:47;;;;;;;13.95;4.00;;;;;;;;;;7392264;19;20010;-85
2022/10/19 09:31:24;;;;;;;9.05;4.03;;;;;;;;;;7389773;19;19998;-86
2022/10/19 09:33:55;;;;;;;9.23;4.68;;;;;;;;;;7393707;19;20010;-86
2022/10/19 09:36:22;;;;;;;8.27;4.35;;;;;;;;;;7398410;19;20439;-85
2022/10/19 09:38:48;;;;;;;10.75;4.63;;;;;;;;;;7396995;19;19998;-85
2022/10/19 09:41:19;;;;;;;11.70;4.00;;;;;;;;;;7397177;19;20472;-86
2022/10/19 09:43:52;;;;;;;6.70;3.83;;;;;;;;;;7387024;19;20003;-85
2022/10/19 09:46:28;;;;;;;9.77;4.55;;;;;;;;;;7396144;19;20002;-86
2022/10/19 09:48:53;;;;;;;10.77;4.30;;;;;;;;;;7395934;19;19998;-85
2022/10/19 09:51:19;;;;;;;11.35;4.50;;;;;;;;;;7394458;19;20013;-86
2022/10/19 09:53:55;;;;;;;10.73;3.97;;;;;;;;;;7398411;19;20016;-85
2022/10/19 09:56:22;;;;;;;16.23;4.75;;;;;;;;;;7398004;19;20069;-85
2022/10/19 09:58:49;;;;;;;9.85;4.05;;;;;;;;;;7398587;19;19998;-85
2022/10/19 10:01:57;;;;;;;9.85;4.38;;;;;;;;;;7394739;19;20006;-84
2022/10/19 10:04:23;;;;;;;11.30;4.07;;;;;;;;;;7394108;19;20456;-85
2022/10/19 10:06:48;;;;;;;8.10;4.05;;;;;;;;;;7396467;19;20023;-86
2022/10/19 10:09:15;;;;;;;10.23;4.80;;;;;;;;;;7395572;19;20006;-84
2022/10/19 10:11:44;;;;;;;11.27;4.57;;;;;;;;;;7393847;19;20023;-84
2022/10/19 10:14:19;;;;;;;11.55;4.40;;;;;;;;;;7397919;19;20003;-84
2022/10/19 10:16:45;;;;;;;10.70;4.65;;;;;;;;;;7397303;19;19998;-85
2022/10/19 10:19:13;;;;;;;9.05;4.38;;;;;;;;;;7395447;19;20009;-83
2022/10/19 10:21:49;;;;;;;13.50;5.10;;;;;;;;;;7389744;19;20515;-82
2022/10/19 10:24:15;;;;;;;8.18;4.07;;;;;;;;;;7397176;19;20001;-84
2022/10/19 10:26:46;;;;;;;10.88;4.53;;;;;;;;;;7397230;19;20006;-83
2022/10/19 10:29:23;;;;;;;11.93;4.53;;;;;;;;;;7395197;19;20002;-83
2022/10/19 10:31:52;;;;;;;9.25;4.57;;;;;;;;;;7391994;19;20007;-84
2022/10/19 10:34:29;;;;;;;11.32;5.25;;;;;;;;;;7396290;19;20455;-82
2022/10/19 10:36:55;;;;;;;10.02;4.40;;;;;;;;;;7395753;19;20003;-69
2022/10/19 10:39:23;;;;;;;10.43;5.53;;;;;;;;;;7396800;19;20130;-75
2022/10/19 10:41:49;;;;;;;8.18;4.50;;;;;;;;;;7391984;19;20070;-75
2022/10/19 10:44:30;;;;;;;8.77;4.55;;;;;;;;;;7397131;19;20002;-75
2022/10/19 10:46:58;;;;;;;10.73;4.95;;;;;;;;;;7394074;19;20352;-76
2022/10/19 10:49:37;;;;;;;8.93;3.83;;;;;;;;;;7396591;19;19995;-77
2022/10/19 10:52:10;;;;;;;12.38;5.10;;;;;;;;;;7391931;19;20003;-77
2022/10/19 10:54:36;;;;;;;9.13;4.60;;;;;;;;;;7397832;19;20006;-77
2022/10/19 10:57:12;;;;;;;11.00;4.80;;;;;;;;;;7394637;19;19991;-77
2022/10/19 10:59:50;;;;;;;12.70;5.57;;;;;;;;;;7400778;19;19995;-77
2022/10/19 11:02:37;;;;;;;14.88;4.72;;;;;;;;;;7398462;19;20152;-76
2022/10/19 11:05:18;;;;;;;10.77;4.95;;;;;;;;;;7395540;19;20015;-77
2022/10/19 11:07:47;;;;;;;11.02;5.32;;;;;;;;;;7394961;19;20058;-77
2022/10/19 11:10:35;;;;;;;11.18;4.28;;;;;;;;;;7397000;19;20329;-77
2022/10/19 11:13:09;;;;;;;11.77;4.70;;;;;;;;;;7394596;19;20025;-76
2022/10/19 11:15:43;;;;;;;8.23;4.68;;;;;;;;;;7394725;19;20298;-76
2022/10/19 11:18:20;;;;;;;10.02;4.97;;;;;;;;;;7393176;19;20003;-76
2022/10/19 11:21:11;;;;;;;9.18;4.82;;;;;;;;;;7395264;19;20001;-76
2022/10/19 11:23:50;;;;;;;9.63;5.10;;;;;;;;;;7390418;19;20464;-76
2022/10/19 11:26:48;;;;;;;8.77;4.82;;;;;;;;;;7395595;19;20032;-77
2022/10/19 11:29:40;;;;;;;10.27;5.03;;;;;;;;;;7391172;19;20543;-76
2022/10/19 11:32:18;;;;;;;11.73;5.13;;;;;;;;;;7389906;19;20062;-76
2022/10/19 11:34:58;;;;;;;13.57;5.43;;;;;;;;;;7394295;19;21329;-77
2022/10/19 11:37:57;;;;;;;9.23;4.78;;;;;;;;;;7392542;19;20009;-78
2022/10/19 11:40:37;;;;;;;10.95;4.95;;;;;;;;;;7394081;19;20074;-77
2022/10/19 11:43:05;;;;;;;11.07;5.15;;;;;;;;;;7386992;19;20005;-77
2022/10/19 11:46:00;;;;;;;14.90;5.28;;;;;;;;;;7390615;19;20506;-77
2022/10/19 11:48:25;;;;;;;10.52;5.45;;;;;;;;;;7394394;19;20002;-77
2022/10/19 11:51:01;;;;;;;8.43;4.63;;;;;;;;;;7388471;19;19997;-77
2022/10/19 11:53:48;;;;;;;10.20;4.88;;;;;;;;;;7392191;19;20085;-78
2022/10/19 11:56:21;;;;;;;9.77;4.82;;;;;;;;;;7394249;19;20002;-78
2022/10/19 11:59:03;;;;;;;9.32;5.45;;;;;;;;;;7394937;19;19998;-78
2022/10/19 12:01:49;;;;;;;9.80;5.43;;;;;;;;;;7392418;19;20408;-77
2022/10/19 12:04:50;;;;;;;11.15;6.22;;;;;;;;;;7394001;19;19991;-78
2022/10/19 12:07:33;;;;;;;13.03;5.97;;;;;;;;;;7391991;19;20058;-79
2022/10/19 12:10:22;;;;;;;9.52;5.30;;;;;;;;;;7391700;19;20002;-79
2022/10/19 12:12:54;;;;;;;11.45;5.90;;;;;;;;;;7392936;19;19999;-77
2022/10/19 12:15:29;;;;;;;12.93;5.90;;;;;;;;;;7393269;19;20023;-78
2022/10/19 12:18:01;;;;;;;13.05;5.53;;;;;;;;;;7392662;19;19999;-77
2022/10/19 12:20:37;;;;;;;13.45;5.72;;;;;;;;;;7392584;19;19998;-78
2022/10/19 12:23:15;;;;;;;10.82;5.30;;;;;;;;;;7391013;19;20444;-77
2022/10/19 12:25:43;;;;;;;9.77;5.55;;;;;;;;;;7393478;19;20515;-78
2022/10/19 12:28:18;;;;;;;10.73;5.75;;;;;;;;;;7391013;19;20070;-79
2022/10/19 12:30:44;;;;;;;14.10;5.80;;;;;;;;;;7392966;19;19998;-78
2022/10/19 12:33:22;;;;;;;15.68;6.30;;;;;;;;;;7391723;19;20431;-78
2022/10/19 12:36:23;;;;;;;12.32;5.70;;;;;;;;;;7392579;19;20005;-77
2022/10/19 12:39:14;;;;;;;11.73;6.47;;;;;;;;;;7387325;19;20025;-78
2022/10/19 12:41:58;;;;;;;12.00;6.10;;;;;;;;;;7388215;19;20005;-78
2022/10/19 12:44:45;;;;;;;9.82;5.88;;;;;;;;;;7392507;19;20029;-76
2022/10/19 12:47:17;;;;;;;9.60;5.50;;;;;;;;;;7393194;19;19999;-78
2022/10/19 12:49:46;;;;;;;12.02;5.63;;;;;;;;;;7392210;19;19994;-78
2022/10/19 12:52:13;;;;;;;11.13;5.15;;;;;;;;;;7391207;19;20074;-79
2022/10/19 12:54:40;;;;;;;8.93;5.20;;;;;;;;;;7392437;19;20009;-78
2022/10/19 12:57:27;;;;;;;11.70;5.68;;;;;;;;;;7392226;19;20011;-79
2022/10/19 13:00:05;;;;;;;12.57;5.43;;;;;;;;;;7392048;19;20006;-80
2022/10/19 13:02:34;;;;;;;13.07;5.85;;;;;;;;;;7390430;19;19997;-79
2022/10/19 13:05:00;;;;;;;13.68;5.97;;;;;;;;;;7390013;19;20321;-81
2022/10/19 13:07:26;;;;;;;9.55;5.43;;;;;;;;;;7390555;19;20448;-80
2022/10/19 13:10:00;;;;;;;13.60;5.25;;;;;;;;;;7391012;19;20071;-79
2022/10/19 13:12:26;;;;;;;10.32;5.60;;;;;;;;;;7390536;19;19998;-79
2022/10/19 13:14:58;;;;;;;15.45;5.00;;;;;;;;;;7388927;19;20027;-79
2022/10/19 13:17:33;;;;;;;9.65;4.95;;;;;;;;;;7390675;19;20075;-78
2022/10/19 13:20:13;;;;;;;10.25;5.25;;;;;;;;;;7386156;19;20022;-77
2022/10/19 13:22:47;;;;;;;12.23;4.65;;;;;;;;;;7389876;19;20015;-77
2022/10/19 13:25:16;;;;;;;15.45;5.90;;;;;;;;;;7387281;19;19995;-77
2022/10/19 13:27:48;;;;;;;9.73;5.07;;;;;;;;;;7388961;19;20449;-78
2022/10/19 13:30:35;;;;;;;12.18;5.97;;;;;;;;;;7390429;19;20087;-78
2022/10/19 13:33:32;;;;;;;13.13;5.10;;;;;;;;;;7385352;19;19999;-78
2022/10/19 13:35:57;;;;;;;10.55;5.30;;;;;;;;;;7390200;19;19994;-78
2022/10/19 13:38:46;;;;;;;9.17;4.90;;;;;;;;;;7391206;19;20022;-78
2022/10/19 13:41:22;;;;;;;10.20;4.55;;;;;;;;;;7385030;19;20922;-78
2022/10/19 13:43:50;;;;;;;11.00;4.97;;;;;;;;;;7385867;19;20108;-78
2022/10/19 13:46:21;;;;;;;7.90;4.70;;;;;;;;;;7386923;19;19994;-79
2022/10/19 13:48:56;;;;;;;9.13;4.90;;;;;;;;;;7391292;19;19995;-79
2022/10/19 13:51:51;;;;;;;8.45;4.50;;;;;;;;;;7384561;19;20010;-79
2022/10/19 13:54:45;;;;;;;8.65;4.07;;;;;;;;;;7389940;19;20007;-78
2022/10/19 13:57:40;;;;;;;7.70;4.45;;;;;;;;;;7388260;19;19995;-78
2022/10/19 14:00:11;;;;;;;8.30;4.30;;;;;;;;;;7388745;19;20002;-79
2022/10/19 14:02:54;;;;;;;8.38;4.75;;;;;;;;;;7383576;19;20010;-79
2022/10/19 14:05:43;;;;;;;8.95;4.80;;;;;;;;;;7387737;19;20056;-78
2022/10/19 14:08:33;;;;;;;8.45;4.03;;;;;;;;;;7390366;19;20925;-78
2022/10/19 14:11:04;;;;;;;7.68;4.57;;;;;;;;;;7388425;19;20003;-79
2022/10/19 14:13:30;;;;;;;7.90;4.55;;;;;;;;;;7389767;19;20168;-78
2022/10/19 14:16:00;;;;;;;7.15;4.20;;;;;;;;;;7387750;19;20093;-83
2022/10/19 14:18:29;;;;;;;7.72;4.72;;;;;;;;;;7388791;19;20082;-79
2022/10/19 14:21:03;;;;;;;8.60;4.22;;;;;;;;;;7385459;19;20036;-79
2022/10/19 14:23:32;;;;;;;12.55;4.22;;;;;;;;;;7377591;19;19999;-79
2022/10/19 14:26:10;;;;;;;8.27;4.30;;;;;;;;;;7387255;19;19998;-80
2022/10/19 14:28:36;;;;;;;9.40;4.75;;;;;;;;;;7394167;19;20022;-78
2022/10/19 14:31:04;;;;;;;7.80;4.00;;;;;;;;;;7384945;19;20610;-80
2022/10/19 14:33:36;;;;;;;7.18;3.88;;;;;;;;;;7390640;19;19986;-81
2022/10/19 14:36:02;;;;;;;7.22;4.03;;;;;;;;;;7390117;19;20006;-80
2022/10/19 14:38:35;;;;;;;8.95;4.28;;;;;;;;;;7392151;19;20397;-78
2022/10/19 14:41:01;;;;;;;6.20;3.90;;;;;;;;;;7393154;19;20054;-79
2022/10/19 14:43:30;;;;;;;10.80;4.30;;;;;;;;;;7394331;19;20468;-81
2022/10/19 14:46:05;;;;;;;6.80;3.80;;;;;;;;;;7391386;19;20337;-80
2022/10/19 14:48:31;;;;;;;6.45;4.07;;;;;;;;;;7396670;19;20054;-80
2022/10/19 14:50:57;;;;;;;8.85;4.00;;;;;;;;;;7395006;19;20127;-80